Time;durP1;ratioP1;P1;durP2;ratioP2;P2;SDS_P1;SDS_P2;PMS_P1;PMS_P2;Temp;Humidity;BMP_temperature;BMP_pressure;BME280_temperature;BME280_humidity;BME280_pressure;Samples;Min_cycle;Max_cycle;Signal;HPM_P1;HPM_P2
2023/12/03 00:02:21;;;;;;;0.95;0.82;;;3.10;39.70;;;;;;5032465;28;20205;-55
2023/12/03 00:04:48;;;;;;;1.52;1.42;;;3.10;39.90;;;;;;5032704;28;20169;-53
2023/12/03 00:07:14;;;;;;;1.10;0.82;;;3.10;40.00;;;;;;5032425;28;20184;-50
2023/12/03 00:09:40;;;;;;;4.03;3.60;;;3.00;40.30;;;;;;5032652;28;20211;-55
2023/12/03 00:12:07;;;;;;;1.02;0.93;;;3.10;40.20;;;;;;5039553;28;20193;-54
2023/12/03 00:14:34;;;;;;;1.63;1.50;;;3.00;40.30;;;;;;5052179;28;20181;-50
2023/12/03 00:17:00;;;;;;;3.78;1.98;;;3.10;40.40;;;;;;5052219;28;20181;-57
2023/12/03 00:19:25;;;;;;;1.90;0.80;;;2.90;40.50;;;;;;5052324;28;20186;-50
2023/12/03 00:21:51;;;;;;;1.40;1.13;;;2.90;41.00;;;;;;5052059;28;20187;-54
2023/12/03 00:24:18;;;;;;;5.13;1.63;;;2.80;41.00;;;;;;5035070;28;20199;-55
2023/12/03 00:26:43;;;;;;;6.43;1.70;;;2.80;41.30;;;;;;5032075;28;20185;-51
2023/12/03 00:29:13;;;;;;;2.37;2.00;;;2.80;41.50;;;;;;5039944;28;20686;-57
2023/12/03 00:31:39;;;;;;;1.92;1.70;;;2.90;41.30;;;;;;5052048;28;20176;-56
2023/12/03 00:34:05;;;;;;;2.30;2.10;;;2.90;41.30;;;;;;5051926;28;20287;-50
2023/12/03 00:36:32;;;;;;;1.30;1.20;;;2.80;41.50;;;;;;5051752;28;20784;-56
2023/12/03 00:38:57;;;;;;;1.30;1.20;;;2.80;41.60;;;;;;5051888;28;20185;-58
2023/12/03 00:41:23;;;;;;;1.23;1.13;;;2.80;41.60;;;;;;5051842;28;20304;-49
2023/12/03 00:43:49;;;;;;;1.00;0.57;;;2.90;41.50;;;;;;5051793;28;20218;-50
2023/12/03 00:46:19;;;;;;;1.90;1.50;;;2.90;41.60;;;;;;5051654;28;20234;-54
2023/12/03 00:48:45;;;;;;;4.07;2.58;;;2.90;41.70;;;;;;5051833;28;20249;-56
2023/12/03 00:51:12;;;;;;;1.35;0.95;;;2.90;41.70;;;;;;5051817;28;20185;-48
2023/12/03 00:53:38;;;;;;;1.02;0.75;;;2.90;41.60;;;;;;5051546;28;20266;-55
2023/12/03 00:56:04;;;;;;;11.23;2.07;;;2.90;41.70;;;;;;5036566;28;20706;-54
2023/12/03 00:58:30;;;;;;;6.32;1.30;;;2.90;41.70;;;;;;5031763;28;20415;-51
2023/12/03 01:00:56;;;;;;;1.08;0.82;;;2.90;41.70;;;;;;5031783;28;20231;-53
2023/12/03 01:03:22;;;;;;;1.30;1.20;;;2.90;41.50;;;;;;5031688;28;20617;-55
2023/12/03 01:05:48;;;;;;;15.13;2.87;;;2.90;41.50;;;;;;5031637;28;20756;-50
2023/12/03 01:08:13;;;;;;;5.43;3.13;;;2.90;41.40;;;;;;5048088;28;20513;-52
2023/12/03 01:10:39;;;;;;;1.40;1.07;;;2.80;41.60;;;;;;5023573;28;20536;-54
2023/12/03 01:13:05;;;;;;;2.70;2.30;;;2.70;41.80;;;;;;5031650;28;20693;-49
2023/12/03 01:15:31;;;;;;;0.70;0.30;;;2.70;41.90;;;;;;5031458;28;20494;-54
2023/12/03 01:17:57;;;;;;;3.60;2.20;;;2.60;41.90;;;;;;5031788;28;20283;-52
2023/12/03 01:20:22;;;;;;;8.60;1.80;;;2.60;42.00;;;;;;5031635;28;20187;-52
2023/12/03 01:22:48;;;;;;;2.07;1.47;;;2.70;41.90;;;;;;5031355;28;20278;-54
2023/12/03 01:25:14;;;;;;;0.90;0.57;;;2.60;41.90;;;;;;5031469;28;20510;-50
2023/12/03 01:27:40;;;;;;;1.57;1.47;;;2.60;42.00;;;;;;5023513;28;20474;-53
2023/12/03 01:30:06;;;;;;;4.83;3.47;;;2.70;42.00;;;;;;5031556;28;20511;-55
2023/12/03 01:32:32;;;;;;;5.78;3.85;;;2.60;41.80;;;;;;5031328;28;20204;-52
2023/12/03 01:34:58;;;;;;;1.67;1.57;;;2.60;42.00;;;;;;5031539;28;20683;-53
2023/12/03 01:37:23;;;;;;;1.97;1.87;;;2.50;42.30;;;;;;5031243;28;20647;-50
2023/12/03 01:39:49;;;;;;;1.80;1.70;;;2.50;42.10;;;;;;5031581;28;20227;-51
2023/12/03 01:42:15;;;;;;;2.17;0.97;;;2.60;41.90;;;;;;5031330;28;20637;-54
2023/12/03 01:44:41;;;;;;;1.50;1.33;;;2.70;42.00;;;;;;5031181;28;20227;-50
2023/12/03 01:47:06;;;;;;;1.27;1.00;;;2.70;41.80;;;;;;5034210;28;20404;-55
2023/12/03 01:49:33;;;;;;;3.13;2.90;;;2.70;41.70;;;;;;5035083;28;20187;-56
2023/12/03 01:51:59;;;;;;;7.25;2.80;;;2.70;41.70;;;;;;5034945;28;20180;-49
2023/12/03 01:54:27;;;;;;;1.50;1.40;;;2.70;41.90;;;;;;5035119;28;20177;-52
2023/12/03 01:56:54;;;;;;;2.40;2.03;;;2.60;42.00;;;;;;5034878;28;20640;-54
2023/12/03 01:59:23;;;;;;;3.25;2.63;;;2.60;42.10;;;;;;5034871;28;20205;-49
2023/12/03 02:01:49;;;;;;;0.90;0.43;;;2.60;42.00;;;;;;5034890;28;20177;-52
2023/12/03 02:04:15;;;;;;;1.20;1.02;;;2.70;42.00;;;;;;5034947;28;20198;-54
2023/12/03 02:06:40;;;;;;;0.90;0.40;;;2.70;41.90;;;;;;5034687;28;20190;-49
2023/12/03 02:09:07;;;;;;;1.87;1.37;;;2.70;41.90;;;;;;5035013;28;20189;-53
2023/12/03 02:11:33;;;;;;;2.15;1.95;;;2.80;41.90;;;;;;5034697;28;20185;-56
2023/12/03 02:14:00;;;;;;;1.60;1.50;;;2.80;41.90;;;;;;5034615;28;20342;-54
2023/12/03 02:16:26;;;;;;;2.55;1.40;;;2.90;41.90;;;;;;5034396;28;20203;-50
2023/12/03 02:18:51;;;;;;;5.23;4.33;;;2.90;41.70;;;;;;5034688;28;20825;-53
2023/12/03 02:21:17;;;;;;;3.90;3.60;;;3.00;41.60;;;;;;5034198;28;20278;-57
2023/12/03 02:23:43;;;;;;;4.23;3.83;;;3.00;42.30;;;;;;5046408;28;20669;-49
2023/12/03 02:26:09;;;;;;;1.90;1.80;;;3.10;41.70;;;;;;5054280;28;20725;-53
2023/12/03 02:28:34;;;;;;;2.77;2.57;;;3.10;41.50;;;;;;5054239;28;20267;-56
2023/12/03 02:31:00;;;;;;;7.63;2.90;;;3.10;41.50;;;;;;5054347;28;20180;-50
2023/12/03 02:33:27;;;;;;;18.75;7.85;;;3.10;41.50;;;;;;5054088;28;20223;-55
2023/12/03 02:35:53;;;;;;;6.82;1.02;;;3.20;41.50;;;;;;5054021;28;20544;-51
2023/12/03 02:38:18;;;;;;;1.20;0.90;;;3.20;41.30;;;;;;5054203;28;20267;-52
2023/12/03 02:40:44;;;;;;;16.43;2.73;;;3.20;41.30;;;;;;5054175;28;20223;-56
2023/12/03 02:43:10;;;;;;;7.27;1.93;;;3.20;41.20;;;;;;5053972;28;20532;-51
2023/12/03 02:45:35;;;;;;;2.20;1.27;;;3.20;41.30;;;;;;5053897;28;20187;-53
2023/12/03 02:48:01;;;;;;;2.10;1.27;;;3.20;41.30;;;;;;5054077;28;20418;-55
2023/12/03 02:50:27;;;;;;;2.97;0.83;;;3.30;41.30;;;;;;5053884;28;20188;-50
2023/12/03 02:52:53;;;;;;;5.53;2.97;;;3.30;41.00;;;;;;5053818;28;20227;-51
2023/12/03 02:55:18;;;;;;;2.70;2.50;;;3.30;41.00;;;;;;5053558;28;20813;-55
2023/12/03 02:57:44;;;;;;;1.33;1.23;;;3.30;40.80;;;;;;5052655;28;20180;-51
2023/12/03 03:00:10;;;;;;;1.47;1.17;;;3.30;41.00;;;;;;5053826;28;20180;-51
2023/12/03 03:02:37;;;;;;;3.05;2.13;;;3.20;41.00;;;;;;5053538;28;20193;-57
2023/12/03 03:05:04;;;;;;;3.63;3.05;;;3.20;41.10;;;;;;5053778;28;20658;-56
2023/12/03 03:07:29;;;;;;;0.90;0.50;;;3.10;41.40;;;;;;5053405;28;20192;-51
2023/12/03 03:09:55;;;;;;;8.53;3.43;;;3.00;41.60;;;;;;5053627;28;20187;-53
2023/12/03 03:12:21;;;;;;;2.20;2.00;;;2.90;41.80;;;;;;5053314;28;20617;-56
2023/12/03 03:14:46;;;;;;;3.00;1.63;;;3.00;42.00;;;;;;5053550;28;20172;-51
2023/12/03 03:17:12;;;;;;;1.63;0.83;;;3.00;41.90;;;;;;5053337;28;20179;-55
2023/12/03 03:19:41;;;;;;;0.80;0.43;;;3.00;41.90;;;;;;5053377;28;20181;-54
2023/12/03 03:22:07;;;;;;;5.38;1.48;;;3.00;42.10;;;;;;5053178;28;20219;-54
2023/12/03 03:24:33;;;;;;;3.07;2.30;;;3.00;42.10;;;;;;5051130;28;20211;-57
2023/12/03 03:26:58;;;;;;;2.20;2.00;;;3.00;42.20;;;;;;5033252;28;20559;-49
2023/12/03 03:29:25;;;;;;;4.00;2.93;;;3.00;42.10;;;;;;5033292;28;20412;-56
2023/12/03 03:31:51;;;;;;;1.10;0.85;;;3.00;42.80;;;;;;5033162;28;20263;-52
2023/12/03 03:34:16;;;;;;;1.83;0.67;;;3.10;42.20;;;;;;5033252;28;20276;-51
2023/12/03 03:36:42;;;;;;;1.93;1.30;;;3.20;42.10;;;;;;5033028;28;20572;-51
2023/12/03 03:39:08;;;;;;;3.23;2.50;;;3.30;42.10;;;;;;5033167;28;20230;-54
2023/12/03 03:41:33;;;;;;;3.40;1.47;;;3.30;41.90;;;;;;5032976;28;20177;-50
2023/12/03 03:43:59;;;;;;;5.17;2.40;;;3.40;41.70;;;;;;5032995;28;20610;-51
2023/12/03 03:46:25;;;;;;;0.83;0.50;;;3.30;41.60;;;;;;5050479;28;20646;-53
2023/12/03 03:48:50;;;;;;;1.43;1.10;;;3.40;41.80;;;;;;5052857;28;20208;-55
2023/12/03 03:51:16;;;;;;;1.10;0.93;;;3.40;41.70;;;;;;5052844;28;20186;-49
2023/12/03 03:53:42;;;;;;;2.43;1.93;;;3.50;41.80;;;;;;5052699;28;20581;-51
2023/12/03 03:56:11;;;;;;;0.83;0.50;;;3.50;41.70;;;;;;5052537;28;20199;-54
2023/12/03 03:58:37;;;;;;;3.08;1.77;;;3.60;41.60;;;;;;5052639;28;20528;-52
2023/12/03 04:01:09;;;;;;;2.27;2.17;;;3.50;41.40;;;;;;5052589;28;20183;-50
2023/12/03 04:03:35;;;;;;;1.02;0.75;;;3.60;41.40;;;;;;5052469;28;20442;-52
2023/12/03 04:06:03;;;;;;;1.60;1.50;;;3.60;41.50;;;;;;5052457;28;20259;-57
2023/12/03 04:08:29;;;;;;;4.70;1.85;;;3.60;41.40;;;;;;5052204;28;20542;-50
2023/12/03 04:10:55;;;;;;;2.45;2.13;;;3.60;41.40;;;;;;5052493;28;20542;-51
2023/12/03 04:13:21;;;;;;;2.50;1.70;;;3.40;41.70;;;;;;5052282;28;20207;-58
2023/12/03 04:15:47;;;;;;;5.10;1.43;;;3.40;41.90;;;;;;5052143;28;20866;-57
2023/12/03 04:18:12;;;;;;;1.33;0.87;;;3.40;41.90;;;;;;5052398;28;20180;-49
2023/12/03 04:20:38;;;;;;;2.67;2.53;;;3.40;41.90;;;;;;5052346;28;20198;-53
2023/12/03 04:23:04;;;;;;;16.60;2.20;;;3.50;42.00;;;;;;5052201;28;20216;-55
2023/12/03 04:25:30;;;;;;;2.75;2.15;;;3.40;41.90;;;;;;5051980;28;20181;-51
2023/12/03 04:27:56;;;;;;;1.87;1.77;;;3.50;42.00;;;;;;5052152;28;20241;-53
2023/12/03 04:30:22;;;;;;;2.15;1.98;;;3.60;41.80;;;;;;5051971;28;20494;-54
2023/12/03 04:32:48;;;;;;;2.97;1.63;;;3.60;41.80;;;;;;5051994;28;20318;-50
2023/12/03 04:35:14;;;;;;;3.10;2.63;;;3.60;41.80;;;;;;5051822;28;20451;-53
2023/12/03 04:37:40;;;;;;;5.65;2.08;;;3.60;41.80;;;;;;5051919;28;20176;-57
2023/12/03 04:40:06;;;;;;;1.93;0.93;;;3.50;41.70;;;;;;5051923;28;20245;-51
2023/12/03 04:42:32;;;;;;;2.28;1.90;;;3.60;41.80;;;;;;5051716;28;20442;-51
2023/12/03 04:44:58;;;;;;;3.97;2.53;;;3.50;41.70;;;;;;5051951;28;20682;-55
2023/12/03 04:47:24;;;;;;;0.90;0.70;;;3.60;41.80;;;;;;5051618;28;20179;-51
2023/12/03 04:49:49;;;;;;;2.60;2.20;;;3.70;41.90;;;;;;5051884;28;20203;-57
2023/12/03 04:52:15;;;;;;;1.50;1.10;;;3.70;41.70;;;;;;5051716;28;20234;-55
2023/12/03 04:54:41;;;;;;;2.40;1.47;;;3.70;41.70;;;;;;5051570;28;20187;-52
2023/12/03 04:57:07;;;;;;;5.07;1.83;;;3.80;41.60;;;;;;5051707;28;20474;-50
2023/12/03 04:59:32;;;;;;;1.57;1.47;;;3.80;41.60;;;;;;5051620;28;20183;-57
2023/12/03 05:01:58;;;;;;;3.43;2.50;;;3.80;41.50;;;;;;5051645;28;20189;-55
2023/12/03 05:04:26;;;;;;;1.43;1.33;;;3.90;41.70;;;;;;5051630;28;20256;-51
2023/12/03 05:06:51;;;;;;;1.70;1.38;;;3.90;41.50;;;;;;5051544;28;20173;-57
2023/12/03 05:09:17;;;;;;;2.90;1.93;;;3.90;41.40;;;;;;5051529;28;20552;-56
2023/12/03 05:11:44;;;;;;;0.90;0.63;;;3.80;41.30;;;;;;5051691;28;20176;-51
2023/12/03 05:14:10;;;;;;;5.47;3.13;;;3.90;41.70;;;;;;5051411;28;20440;-53
2023/12/03 05:16:36;;;;;;;1.00;0.80;;;3.80;41.60;;;;;;5032327;28;20259;-55
2023/12/03 05:19:02;;;;;;;3.03;2.75;;;3.80;41.60;;;;;;5031700;28;20174;-54
2023/12/03 05:21:28;;;;;;;5.17;2.83;;;3.90;41.70;;;;;;5033192;28;20592;-54
2023/12/03 05:23:54;;;;;;;0.80;0.47;;;3.80;41.80;;;;;;5035605;28;20455;-54
2023/12/03 05:26:20;;;;;;;3.03;2.20;;;3.80;41.80;;;;;;5035443;28;20264;-51
2023/12/03 05:28:45;;;;;;;9.30;2.80;;;3.90;42.10;;;;;;5035530;28;20420;-53
2023/12/03 05:31:11;;;;;;;1.53;0.97;;;3.90;42.10;;;;;;5035530;28;20225;-55
2023/12/03 05:33:38;;;;;;;3.92;2.03;;;3.90;42.50;;;;;;5035270;28;20439;-52
2023/12/03 05:36:04;;;;;;;4.40;1.77;;;3.80;42.30;;;;;;5035242;28;20709;-50
2023/12/03 05:38:30;;;;;;;1.15;0.93;;;3.80;42.50;;;;;;5035270;28;20408;-53
2023/12/03 05:40:56;;;;;;;11.30;2.70;;;3.80;42.60;;;;;;5035410;28;20647;-57
2023/12/03 05:43:22;;;;;;;2.28;2.15;;;3.80;42.70;;;;;;5035484;28;20733;-49
2023/12/03 05:45:47;;;;;;;2.50;1.70;;;3.80;43.00;;;;;;5055048;28;20196;-52
2023/12/03 05:48:13;;;;;;;1.20;0.60;;;3.80;43.40;;;;;;5055188;28;20268;-55
2023/12/03 05:50:39;;;;;;;3.47;3.17;;;3.80;43.00;;;;;;5055005;28;20239;-51
2023/12/03 05:53:05;;;;;;;1.00;0.80;;;3.80;43.00;;;;;;5055109;28;20242;-56
2023/12/03 05:55:30;;;;;;;8.10;1.93;;;3.90;43.80;;;;;;5054760;28;20251;-53
2023/12/03 05:57:56;;;;;;;1.60;1.50;;;3.90;43.10;;;;;;5054893;28;20194;-51
2023/12/03 06:00:22;;;;;;;2.60;2.40;;;3.90;43.20;;;;;;5054848;28;20177;-52
2023/12/03 06:02:47;;;;;;;5.40;1.70;;;3.80;43.10;;;;;;5054891;28;20558;-54
2023/12/03 06:05:14;;;;;;;0.80;0.50;;;3.80;43.00;;;;;;5054743;28;20177;-53
2023/12/03 06:07:39;;;;;;;1.02;0.65;;;3.80;43.10;;;;;;5054748;28;20251;-50
2023/12/03 06:10:06;;;;;;;0.90;0.60;;;3.80;43.90;;;;;;5054862;28;20590;-53
2023/12/03 06:12:32;;;;;;;3.78;3.58;;;3.70;43.40;;;;;;5054409;28;20262;-50
2023/12/03 06:14:58;;;;;;;0.90;0.50;;;3.60;43.40;;;;;;5054595;28;20184;-50
2023/12/03 06:17:23;;;;;;;3.13;1.63;;;3.60;43.50;;;;;;5054434;28;20181;-57
2023/12/03 06:19:49;;;;;;;7.20;2.30;;;3.60;43.50;;;;;;5054616;28;20178;-56
2023/12/03 06:22:15;;;;;;;1.83;0.70;;;3.60;43.50;;;;;;5054248;28;20193;-49
2023/12/03 06:24:41;;;;;;;1.87;1.77;;;3.60;43.40;;;;;;5054441;28;20179;-58
2023/12/03 06:27:07;;;;;;;2.08;1.35;;;3.70;43.30;;;;;;5054206;28;20187;-56
2023/12/03 06:29:32;;;;;;;4.67;2.13;;;3.80;43.90;;;;;;5054295;28;20547;-51
2023/12/03 06:31:58;;;;;;;2.47;1.20;;;3.80;43.00;;;;;;5054185;28;20670;-52
2023/12/03 06:34:24;;;;;;;1.37;0.93;;;3.80;42.80;;;;;;5054504;28;20538;-57
2023/12/03 06:36:49;;;;;;;1.80;1.70;;;3.90;42.70;;;;;;5054103;28;20209;-51
2023/12/03 06:39:15;;;;;;;2.17;1.87;;;3.90;42.80;;;;;;5054284;28;20523;-53
2023/12/03 06:41:41;;;;;;;0.80;0.40;;;3.90;42.70;;;;;;5054027;28;20516;-54
2023/12/03 06:44:07;;;;;;;1.00;0.83;;;3.90;42.30;;;;;;5054115;28;20215;-51
2023/12/03 06:46:41;;;;;;;3.20;1.17;;;3.90;42.40;;;;;;5035725;28;20461;-53
2023/12/03 06:49:07;;;;;;;3.72;2.53;;;3.90;42.40;;;;;;5034187;28;20185;-57
2023/12/03 06:51:33;;;;;;;1.40;1.20;;;4.00;42.10;;;;;;5033972;28;20257;-51
2023/12/03 06:54:01;;;;;;;1.33;1.20;;;3.90;42.10;;;;;;5033893;28;20277;-57
2023/12/03 06:56:26;;;;;;;2.85;2.35;;;3.90;42.20;;;;;;5033704;28;20214;-51
2023/12/03 06:58:52;;;;;;;2.50;2.30;;;3.80;42.10;;;;;;5033963;28;20174;-59
2023/12/03 07:01:18;;;;;;;1.53;1.33;;;3.80;42.10;;;;;;5033960;28;20174;-52
2023/12/03 07:03:43;;;;;;;0.97;0.60;;;3.60;42.30;;;;;;5053392;28;20193;-54
2023/12/03 07:06:11;;;;;;;3.97;1.90;;;3.70;42.30;;;;;;5053617;28;20519;-58
2023/12/03 07:08:37;;;;;;;2.45;2.15;;;3.60;42.40;;;;;;5053483;28;20184;-51
2023/12/03 07:11:03;;;;;;;1.83;1.73;;;3.50;42.50;;;;;;5053639;28;20184;-49
2023/12/03 07:13:29;;;;;;;7.63;3.07;;;3.60;42.60;;;;;;5053321;28;20462;-53
2023/12/03 07:15:55;;;;;;;1.30;0.87;;;3.60;42.50;;;;;;5053337;28;20872;-52
2023/12/03 07:18:21;;;;;;;1.17;0.80;;;3.50;42.60;;;;;;5053492;28;20212;-51
2023/12/03 07:20:46;;;;;;;2.38;0.85;;;3.60;42.60;;;;;;5025364;28;20200;-55
2023/12/03 07:23:12;;;;;;;2.53;2.10;;;3.70;42.60;;;;;;5033376;28;20244;-50
2023/12/03 07:25:38;;;;;;;5.33;1.70;;;3.60;42.30;;;;;;5033230;28;20189;-52
2023/12/03 07:28:04;;;;;;;0.80;0.30;;;3.60;42.30;;;;;;5033439;28;20174;-55
2023/12/03 07:30:29;;;;;;;1.47;1.30;;;3.70;42.40;;;;;;5033211;28;20177;-49
2023/12/03 07:32:55;;;;;;;0.87;0.47;;;3.80;42.40;;;;;;5033229;28;20518;-51
2023/12/03 07:35:21;;;;;;;1.73;1.53;;;3.80;42.10;;;;;;5032875;28;20568;-58
2023/12/03 07:37:46;;;;;;;7.53;3.33;;;3.90;42.20;;;;;;5045007;28;20303;-57
2023/12/03 07:40:12;;;;;;;1.10;0.73;;;4.00;42.20;;;;;;5053108;28;20180;-51
2023/12/03 07:42:40;;;;;;;1.53;1.43;;;3.90;42.00;;;;;;5052820;28;20196;-51
2023/12/03 07:45:06;;;;;;;0.90;0.80;;;4.00;42.00;;;;;;5052413;28;20782;-57
2023/12/03 07:47:32;;;;;;;1.15;0.98;;;4.00;42.10;;;;;;5052665;28;20663;-55
2023/12/03 07:49:58;;;;;;;7.40;2.20;;;4.00;42.10;;;;;;5052819;28;20192;-50
2023/12/03 07:52:24;;;;;;;6.93;3.35;;;4.10;42.20;;;;;;5052589;28;20864;-54
2023/12/03 07:54:50;;;;;;;7.90;4.60;;;4.10;42.20;;;;;;5052704;28;20268;-55
2023/12/03 07:57:16;;;;;;;2.73;1.80;;;4.20;42.10;;;;;;5052625;28;20235;-51
2023/12/03 07:59:41;;;;;;;1.43;1.23;;;4.20;42.00;;;;;;5052591;28;20442;-53
2023/12/03 08:02:08;;;;;;;3.37;1.60;;;4.30;42.10;;;;;;5052595;28;20238;-56
2023/12/03 08:04:34;;;;;;;2.20;1.42;;;4.40;42.00;;;;;;5052573;28;20176;-53
2023/12/03 08:07:00;;;;;;;1.60;1.40;;;4.40;41.90;;;;;;5052284;28;20188;-50
2023/12/03 08:09:26;;;;;;;4.80;3.30;;;4.40;41.90;;;;;;5052436;28;20177;-56
2023/12/03 08:11:53;;;;;;;2.10;1.90;;;4.40;41.70;;;;;;5052581;28;20169;-53
2023/12/03 08:14:18;;;;;;;1.23;1.05;;;4.50;41.90;;;;;;5052385;28;20193;-51
2023/12/03 08:16:44;;;;;;;1.67;1.33;;;4.50;41.90;;;;;;5052111;28;20204;-53
2023/12/03 08:19:10;;;;;;;2.13;2.03;;;4.50;41.90;;;;;;5052351;28;20465;-58
2023/12/03 08:21:36;;;;;;;1.50;1.03;;;4.50;41.90;;;;;;5052036;28;20201;-51
2023/12/03 08:24:03;;;;;;;2.05;1.10;;;4.60;41.80;;;;;;5052171;28;20193;-53
2023/12/03 08:26:29;;;;;;;2.75;1.67;;;4.60;41.80;;;;;;5051944;28;20265;-55
2023/12/03 08:28:55;;;;;;;3.92;3.50;;;4.60;41.60;;;;;;5052184;28;20185;-50
2023/12/03 08:31:23;;;;;;;1.73;1.00;;;4.60;41.40;;;;;;5052146;28;20177;-50
2023/12/03 08:33:49;;;;;;;3.78;1.83;;;4.50;41.40;;;;;;5051974;28;20485;-57
2023/12/03 08:36:19;;;;;;;2.17;1.98;;;4.40;41.10;;;;;;5051756;28;20682;-53
2023/12/03 08:38:45;;;;;;;5.18;3.95;;;4.40;41.40;;;;;;5052071;28;20205;-54
2023/12/03 08:41:11;;;;;;;1.70;1.60;;;4.30;41.40;;;;;;5050742;28;20201;-51
2023/12/03 08:43:36;;;;;;;6.80;2.10;;;4.20;41.50;;;;;;5051777;28;20231;-54
2023/12/03 08:46:04;;;;;;;2.40;2.00;;;4.20;42.00;;;;;;5051828;28;20667;-57
2023/12/03 08:48:29;;;;;;;1.15;0.65;;;4.10;42.40;;;;;;5051734;28;20227;-51
2023/12/03 08:50:55;;;;;;;3.27;2.97;;;4.10;42.50;;;;;;5051941;28;20624;-53
2023/12/03 08:53:21;;;;;;;0.93;0.70;;;4.10;42.60;;;;;;5051721;28;20205;-54
2023/12/03 08:55:46;;;;;;;2.30;1.37;;;4.20;42.70;;;;;;5050594;28;20209;-50
2023/12/03 08:58:12;;;;;;;4.50;3.20;;;4.20;42.60;;;;;;5051827;28;20230;-54
2023/12/03 09:00:38;;;;;;;4.07;2.17;;;4.20;42.50;;;;;;5051758;28;20205;-58
2023/12/03 09:03:05;;;;;;;6.30;3.50;;;4.20;42.70;;;;;;5051622;28;20663;-51
2023/12/03 09:05:31;;;;;;;2.05;1.50;;;4.30;42.80;;;;;;5051433;28;20637;-53
2023/12/03 09:07:56;;;;;;;7.60;0.90;;;4.30;42.50;;;;;;5051701;28;20267;-56
2023/12/03 09:10:22;;;;;;;0.90;0.70;;;4.40;42.50;;;;;;5051660;28;20270;-51
2023/12/03 09:12:48;;;;;;;2.80;2.00;;;4.40;42.40;;;;;;5051541;28;20224;-51
2023/12/03 09:15:14;;;;;;;1.38;1.23;;;4.50;42.20;;;;;;5051344;28;20200;-55
2023/12/03 09:17:39;;;;;;;1.63;1.53;;;4.50;41.50;;;;;;5051411;28;20177;-50
2023/12/03 09:20:06;;;;;;;3.73;2.90;;;4.40;41.50;;;;;;5051556;28;20177;-52
2023/12/03 09:22:33;;;;;;;1.80;1.50;;;4.40;41.60;;;;;;5051179;28;20209;-55
2023/12/03 09:24:59;;;;;;;1.20;0.70;;;4.50;42.10;;;;;;5051602;28;20180;-52
2023/12/03 09:27:25;;;;;;;3.80;3.47;;;4.50;42.20;;;;;;5051362;28;20537;-51
2023/12/03 09:29:50;;;;;;;5.33;2.30;;;4.50;41.90;;;;;;5051498;28;20434;-53
2023/12/03 09:32:16;;;;;;;1.90;1.80;;;4.60;41.80;;;;;;5051261;28;20181;-57
2023/12/03 09:34:42;;;;;;;2.13;1.30;;;4.60;41.70;;;;;;5051221;28;20169;-51
2023/12/03 09:37:07;;;;;;;1.30;1.07;;;4.60;41.60;;;;;;5051172;28;20202;-49
2023/12/03 09:39:33;;;;;;;4.40;2.80;;;4.60;41.50;;;;;;5051400;28;20177;-56
2023/12/03 09:42:02;;;;;;;1.83;1.47;;;4.70;41.50;;;;;;5051411;28;20205;-58
2023/12/03 09:44:38;;;;;;;1.70;1.60;;;4.70;41.70;;;;;;5051204;28;20192;-51
2023/12/03 09:47:05;;;;;;;3.67;2.22;;;4.70;40.70;;;;;;5051174;28;20181;-51
2023/12/03 09:49:31;;;;;;;9.63;1.85;;;4.70;40.80;;;;;;5051188;28;20315;-59
2023/12/03 09:52:01;;;;;;;1.77;1.67;;;4.60;40.80;;;;;;5051241;28;20633;-50
2023/12/03 09:54:28;;;;;;;2.38;1.50;;;4.60;40.80;;;;;;5051209;28;20189;-57
2023/12/03 09:56:58;;;;;;;1.08;0.82;;;4.60;40.90;;;;;;5051026;28;20205;-49
2023/12/03 09:59:27;;;;;;;6.93;2.35;;;4.70;40.70;;;;;;5051008;28;20174;-52
2023/12/03 10:01:55;;;;;;;1.23;1.13;;;4.60;40.50;;;;;;5051048;28;20218;-56
2023/12/03 10:04:21;;;;;;;0.90;0.60;;;4.50;40.20;;;;;;5051095;28;20277;-51
2023/12/03 10:06:50;;;;;;;2.30;1.03;;;4.50;40.50;;;;;;5051402;28;20220;-51
2023/12/03 10:09:16;;;;;;;2.13;1.98;;;4.50;40.40;;;;;;5054853;28;20498;-51
2023/12/03 10:11:55;;;;;;;1.50;1.40;;;4.40;40.20;;;;;;5054761;28;20288;-59
2023/12/03 10:14:21;;;;;;;3.40;2.38;;;4.40;40.50;;;;;;5054649;28;20205;-58
2023/12/03 10:16:50;;;;;;;1.65;1.55;;;4.50;40.90;;;;;;5054370;28;20258;-50
2023/12/03 10:19:26;;;;;;;1.48;1.38;;;4.50;40.90;;;;;;5054760;28;20173;-56
2023/12/03 10:21:53;;;;;;;4.75;2.33;;;4.50;40.70;;;;;;5054417;28;20197;-49
2023/12/03 10:24:19;;;;;;;2.20;1.98;;;4.50;40.40;;;;;;5054406;28;20193;-53
2023/12/03 10:26:53;;;;;;;1.02;0.93;;;4.50;40.60;;;;;;5054262;28;20187;-56
2023/12/03 10:29:19;;;;;;;1.23;1.05;;;4.40;40.30;;;;;;5054488;28;20181;-51
2023/12/03 10:31:48;;;;;;;1.92;1.70;;;4.40;40.80;;;;;;5054289;28;20174;-57
2023/12/03 10:34:14;;;;;;;20.10;3.78;;;4.30;40.90;;;;;;5054263;28;20197;-50
2023/12/03 10:36:44;;;;;;;1.00;0.90;;;4.30;40.90;;;;;;5054108;28;21018;-51
2023/12/03 10:39:12;;;;;;;5.68;3.45;;;4.30;41.20;;;;;;5054191;28;20420;-59
2023/12/03 10:41:38;;;;;;;1.35;1.25;;;4.30;41.10;;;;;;5054126;28;20169;-51
2023/12/03 10:44:04;;;;;;;2.33;1.45;;;4.40;41.30;;;;;;5054054;28;20666;-54
2023/12/03 10:46:30;;;;;;;1.43;1.33;;;4.50;41.50;;;;;;5053902;28;20272;-56
2023/12/03 10:48:56;;;;;;;1.00;0.90;;;4.50;41.50;;;;;;5054153;28;20181;-55
2023/12/03 10:51:22;;;;;;;6.60;2.30;;;4.60;40.70;;;;;;5054039;28;20180;-50
2023/12/03 10:53:49;;;;;;;2.88;2.67;;;4.60;40.70;;;;;;5053680;28;20224;-57
2023/12/03 10:56:16;;;;;;;7.88;3.08;;;4.60;40.90;;;;;;5053672;28;20288;-51
2023/12/03 10:58:43;;;;;;;1.33;1.20;;;4.50;40.80;;;;;;5053837;28;20181;-53
2023/12/03 11:01:24;;;;;;;7.72;2.72;;;4.60;40.90;;;;;;5053711;28;20539;-53
2023/12/03 11:04:14;;;;;;;5.93;2.88;;;4.60;40.80;;;;;;5025750;28;20194;-59
2023/12/03 11:06:41;;;;;;;2.00;1.05;;;4.40;40.90;;;;;;5033671;28;20583;-50
2023/12/03 11:09:07;;;;;;;1.48;1.10;;;4.30;41.20;;;;;;5033831;28;20189;-51
2023/12/03 11:11:34;;;;;;;5.20;1.77;;;4.30;41.00;;;;;;5033627;28;20178;-54
2023/12/03 11:13:59;;;;;;;2.45;0.77;;;4.30;40.90;;;;;;5033581;28;20202;-51
2023/12/03 11:16:32;;;;;;;1.30;1.10;;;4.20;41.30;;;;;;5033277;28;20198;-51
2023/12/03 11:19:13;;;;;;;5.70;1.55;;;4.20;41.50;;;;;;5032690;28;20568;-58
2023/12/03 11:21:38;;;;;;;2.25;2.15;;;4.30;41.90;;;;;;5035389;28;20193;-53
2023/12/03 11:24:23;;;;;;;3.90;2.60;;;4.30;41.90;;;;;;5053336;28;20254;-49
2023/12/03 11:26:48;;;;;;;15.93;2.97;;;4.40;41.90;;;;;;5053199;28;20169;-59
2023/12/03 11:29:14;;;;;;;1.80;1.70;;;4.40;42.00;;;;;;5053600;28;20215;-51
2023/12/03 11:31:40;;;;;;;3.80;2.73;;;4.40;42.30;;;;;;5053321;28;20420;-50
2023/12/03 11:34:10;;;;;;;1.83;1.60;;;4.40;42.50;;;;;;5053124;28;20687;-57
2023/12/03 11:36:36;;;;;;;1.48;1.00;;;4.30;42.80;;;;;;5052798;28;20212;-56
2023/12/03 11:39:03;;;;;;;3.53;1.25;;;4.40;42.90;;;;;;5053162;28;20256;-59
2023/12/03 11:41:36;;;;;;;2.10;0.93;;;4.50;42.80;;;;;;5052891;28;20547;-55
2023/12/03 11:44:19;;;;;;;1.20;1.10;;;4.60;42.80;;;;;;5052904;28;20194;-51
2023/12/03 11:46:48;;;;;;;1.80;1.23;;;4.60;42.70;;;;;;5052819;28;20185;-53
2023/12/03 11:49:14;;;;;;;5.57;2.30;;;4.60;42.70;;;;;;5052902;28;20215;-51
2023/12/03 11:51:40;;;;;;;1.70;0.75;;;4.60;42.80;;;;;;5052777;28;20226;-57
2023/12/03 11:54:07;;;;;;;1.30;0.88;;;4.60;42.80;;;;;;5052652;28;20204;-54
2023/12/03 11:56:35;;;;;;;1.65;1.23;;;4.60;42.70;;;;;;5052570;28;20197;-53
2023/12/03 11:59:00;;;;;;;1.80;1.40;;;4.70;42.70;;;;;;5052811;28;20232;-53
2023/12/03 12:01:26;;;;;;;2.50;1.63;;;4.80;42.40;;;;;;5052573;28;20716;-52
2023/12/03 12:03:52;;;;;;;1.50;0.73;;;4.70;42.20;;;;;;5052540;28;20197;-56
2023/12/03 12:06:27;;;;;;;1.50;0.83;;;4.60;42.60;;;;;;5052540;28;20177;-55
2023/12/03 12:08:53;;;;;;;1.00;0.90;;;4.60;42.60;;;;;;5052611;28;20176;-51
2023/12/03 12:11:18;;;;;;;2.03;1.60;;;4.60;42.80;;;;;;5052629;28;20190;-58
2023/12/03 12:13:45;;;;;;;13.10;2.73;;;4.40;43.30;;;;;;5052248;28;20208;-55
2023/12/03 12:16:12;;;;;;;3.05;1.77;;;4.40;43.50;;;;;;5052154;28;20473;-51
2023/12/03 12:18:38;;;;;;;1.48;0.95;;;4.50;43.60;;;;;;5052310;28;20180;-52
2023/12/03 12:21:10;;;;;;;4.60;1.25;;;4.40;44.00;;;;;;5052254;28;20720;-55
2023/12/03 12:23:36;;;;;;;4.70;1.38;;;4.40;44.20;;;;;;5052348;28;20641;-54
2023/12/03 12:26:03;;;;;;;2.17;1.83;;;4.40;44.60;;;;;;5052144;28;20182;-55
2023/12/03 12:28:28;;;;;;;2.28;1.20;;;4.40;45.00;;;;;;5052158;28;20212;-52
2023/12/03 12:30:57;;;;;;;1.03;0.93;;;4.40;44.60;;;;;;5051992;28;20216;-54
2023/12/03 12:33:23;;;;;;;2.40;2.17;;;4.40;44.60;;;;;;5052027;28;20255;-59
2023/12/03 12:35:50;;;;;;;1.40;1.30;;;4.50;44.60;;;;;;5051707;28;20204;-54
2023/12/03 12:38:16;;;;;;;4.43;2.15;;;4.50;44.50;;;;;;5052092;28;20559;-58
2023/12/03 12:40:55;;;;;;;1.40;0.60;;;4.60;44.50;;;;;;5051953;28;20181;-56
2023/12/03 12:43:23;;;;;;;2.33;2.13;;;4.70;44.30;;;;;;5051914;28;20435;-50
2023/12/03 12:45:49;;;;;;;0.88;0.55;;;4.80;44.10;;;;;;5051710;28;20185;-53
2023/12/03 12:48:33;;;;;;;4.40;3.43;;;4.90;44.00;;;;;;5051915;28;20699;-58
2023/12/03 12:50:58;;;;;;;2.95;2.75;;;5.00;43.80;;;;;;5051971;28;20426;-52
2023/12/03 12:53:25;;;;;;;3.10;2.80;;;5.00;43.70;;;;;;5051784;28;20745;-56
2023/12/03 12:55:51;;;;;;;2.28;0.93;;;5.00;43.50;;;;;;5051518;28;20860;-51